Time;durP1;ratioP1;P1;durP2;ratioP2;P2;SDS_P1;SDS_P2;PMS_P1;PMS_P2;Temp;Humidity;BMP_temperature;BMP_pressure;BME280_temperature;BME280_humidity;BME280_pressure;Samples;Min_cycle;Max_cycle;Signal;HPM_P1;HPM_P2
2022/12/25 00:01:08;;;;;;;9.20;5.20;;;;;;;;;;10485881;28;20024;-73
2022/12/25 00:06:08;;;;;;;8.80;4.30;;;;;;;;;;10490861;28;20127;-78
2022/12/25 00:11:13;;;;;;;7.43;4.03;;;;;;;;;;10485688;28;20471;-80
2022/12/25 00:16:18;;;;;;;8.20;4.00;;;;;;;;;;10448858;28;20017;-75
2022/12/25 00:21:19;;;;;;;8.77;4.03;;;;;;;;;;10440239;28;20061;-75
2022/12/25 00:26:19;;;;;;;11.73;4.35;;;;;;;;;;10490317;28;20024;-78
2022/12/25 00:31:20;;;;;;;8.40;4.30;;;;;;;;;;10489828;28;20035;-75
2022/12/25 00:36:21;;;;;;;6.22;4.13;;;;;;;;;;10489544;28;20493;-74
2022/12/25 00:46:42;;;;;;;6.28;3.97;;;;;;;;;;10490742;28;20044;-77
2022/12/25 00:51:42;;;;;;;8.80;4.43;;;;;;;;;;10488618;28;20123;-74
2022/12/25 00:56:43;;;;;;;6.32;3.63;;;;;;;;;;10489557;28;20096;-75
2022/12/25 01:01:43;;;;;;;9.15;4.60;;;;;;;;;;10495675;28;20118;-73
2022/12/25 01:06:44;;;;;;;9.27;3.80;;;;;;;;;;10521915;28;20504;-74
2022/12/25 01:11:45;;;;;;;6.93;3.78;;;;;;;;;;10527238;28;20025;-74
2022/12/25 01:16:45;;;;;;;5.38;3.22;;;;;;;;;;10521638;28;20398;-75
2022/12/25 01:21:47;;;;;;;6.38;3.65;;;;;;;;;;10450215;28;20507;-76
2022/12/25 01:26:48;;;;;;;3.97;3.10;;;;;;;;;;10488998;28;20074;-74
2022/12/25 01:31:50;;;;;;;7.60;3.15;;;;;;;;;;10488590;28;20103;-74
2022/12/25 01:36:50;;;;;;;5.47;3.63;;;;;;;;;;10487829;28;20120;-73
2022/12/25 01:41:50;;;;;;;6.82;2.72;;;;;;;;;;10486592;28;20089;-74
2022/12/25 01:46:51;;;;;;;4.80;3.20;;;;;;;;;;10488176;28;20021;-76
2022/12/25 01:51:59;;;;;;;5.88;3.65;;;;;;;;;;10486154;28;20024;-75
2022/12/25 01:57:01;;;;;;;5.85;3.50;;;;;;;;;;10487087;28;20024;-75
2022/12/25 02:02:02;;;;;;;8.05;3.63;;;;;;;;;;10487531;28;20087;-77
2022/12/25 02:07:02;;;;;;;9.30;3.47;;;;;;;;;;10487737;28;20028;-74
2022/12/25 02:12:03;;;;;;;5.63;3.13;;;;;;;;;;10485728;28;20026;-75
2022/12/25 02:17:06;;;;;;;7.90;4.00;;;;;;;;;;10485503;28;20020;-75
2022/12/25 02:22:25;;;;;;;7.25;3.80;;;;;;;;;;10442353;28;20124;-80
2022/12/25 02:27:25;;;;;;;6.82;3.20;;;;;;;;;;10484799;28;20131;-74
2022/12/25 02:32:44;;;;;;;5.90;2.95;;;;;;;;;;10484947;28;20030;-74
2022/12/25 02:37:51;;;;;;;8.40;3.85;;;;;;;;;;10484572;28;20013;-77
2022/12/25 03:31:16;;;;;;;5.60;3.15;;;;;;;;;;10463370;28;20040;-74
2022/12/25 03:36:22;;;;;;;8.38;3.17;;;;;;;;;;10470319;28;20518;-74
2022/12/25 04:40:27;;;;;;;6.72;2.97;;;;;;;;;;10487354;28;20020;-75
2022/12/25 04:45:27;;;;;;;7.13;3.72;;;;;;;;;;10482930;28;20414;-74
2022/12/25 04:50:28;;;;;;;6.70;3.43;;;;;;;;;;10490121;28;20320;-79
2022/12/25 04:55:28;;;;;;;6.30;3.72;;;;;;;;;;10490557;28;20321;-75
2022/12/25 05:00:28;;;;;;;7.05;4.20;;;;;;;;;;10491018;28;20024;-76
2022/12/25 05:05:28;;;;;;;6.25;3.40;;;;;;;;;;10497814;28;20031;-78
2022/12/25 05:10:29;;;;;;;6.68;3.55;;;;;;;;;;10491559;28;20047;-77
2022/12/25 05:15:29;;;;;;;7.13;3.67;;;;;;;;;;10488898;28;20086;-74
2022/12/25 05:20:29;;;;;;;7.90;3.42;;;;;;;;;;10487360;28;20053;-73
2022/12/25 05:25:30;;;;;;;6.32;3.50;;;;;;;;;;10466787;28;20115;-75
2022/12/25 05:30:30;;;;;;;9.38;4.05;;;;;;;;;;10481260;28;20029;-73
2022/12/25 05:35:30;;;;;;;6.20;3.25;;;;;;;;;;10430172;28;20033;-74
2022/12/25 05:40:31;;;;;;;6.53;3.23;;;;;;;;;;10466483;28;20020;-75
2022/12/25 05:45:31;;;;;;;3.77;2.40;;;;;;;;;;10488843;28;20031;-75
2022/12/25 05:50:31;;;;;;;7.15;1.80;;;;;;;;;;10487552;28;20255;-73
2022/12/25 05:55:32;;;;;;;3.63;1.93;;;;;;;;;;10481603;28;20089;-77
2022/12/25 06:00:33;;;;;;;7.20;1.60;;;;;;;;;;10434200;28;20013;-75
2022/12/25 06:05:36;;;;;;;4.70;1.63;;;;;;;;;;10496407;22;20048;-74
2022/12/25 06:10:36;;;;;;;3.95;1.80;;;;;;;;;;10499788;28;20027;-78
2022/12/25 06:15:38;;;;;;;5.32;1.90;;;;;;;;;;10504231;28;20478;-79
2022/12/25 06:20:39;;;;;;;3.15;1.45;;;;;;;;;;10482188;28;20025;-79
2022/12/25 06:25:39;;;;;;;2.72;1.38;;;;;;;;;;10487680;28;20031;-75
2022/12/25 06:30:39;;;;;;;7.10;1.90;;;;;;;;;;10459693;28;20025;-78
2022/12/25 06:35:40;;;;;;;3.60;2.15;;;;;;;;;;10500364;28;20542;-77
2022/12/25 06:40:40;;;;;;;6.47;1.73;;;;;;;;;;10470472;28;20024;-79
2022/12/25 06:45:40;;;;;;;4.10;1.58;;;;;;;;;;10475920;28;20029;-74
2022/12/25 06:50:41;;;;;;;1.95;1.35;;;;;;;;;;10465921;28;20028;-73
2022/12/25 06:55:42;;;;;;;2.65;1.55;;;;;;;;;;10491047;28;20024;-72
2022/12/25 07:00:42;;;;;;;3.97;1.67;;;;;;;;;;10490796;28;20020;-74
2022/12/25 07:05:43;;;;;;;3.95;1.83;;;;;;;;;;10486671;28;20707;-74
2022/12/25 07:10:44;;;;;;;3.55;1.70;;;;;;;;;;10479313;28;20059;-77
2022/12/25 07:15:45;;;;;;;3.65;1.88;;;;;;;;;;10480697;28;20847;-76
2022/12/25 07:20:46;;;;;;;2.97;1.80;;;;;;;;;;10480266;28;20097;-74
2022/12/25 07:25:56;;;;;;;3.17;1.40;;;;;;;;;;10481170;28;20024;-76
2022/12/25 07:31:04;;;;;;;2.92;1.40;;;;;;;;;;10481011;28;20086;-79
2022/12/25 07:36:06;;;;;;;6.47;1.70;;;;;;;;;;10481130;28;20029;-73
2022/12/25 07:41:07;;;;;;;3.80;1.40;;;;;;;;;;10473651;28;20146;-78
2022/12/25 07:46:08;;;;;;;5.10;1.90;;;;;;;;;;10473348;28;20587;-77
2022/12/25 07:51:12;;;;;;;2.67;1.50;;;;;;;;;;10483977;28;20125;-77
2022/12/25 07:56:14;;;;;;;5.95;1.13;;;;;;;;;;10492414;28;20067;-75
2022/12/25 08:01:16;;;;;;;5.22;1.52;;;;;;;;;;10456852;28;20119;-78
2022/12/25 08:06:17;;;;;;;2.65;1.52;;;;;;;;;;10487312;28;20098;-77
2022/12/25 08:11:17;;;;;;;5.78;1.33;;;;;;;;;;10474920;28;20568;-78
2022/12/25 08:16:17;;;;;;;3.83;1.17;;;;;;;;;;10474736;22;20099;-76
2022/12/25 08:21:18;;;;;;;3.40;1.90;;;;;;;;;;10466993;28;20049;-74
2022/12/25 08:26:20;;;;;;;3.83;1.67;;;;;;;;;;10446906;28;20036;-73
2022/12/25 08:31:21;;;;;;;2.75;1.27;;;;;;;;;;10434621;28;20048;-71
2022/12/25 08:36:22;;;;;;;2.78;1.20;;;;;;;;;;10450192;28;20508;-73
2022/12/25 08:41:22;;;;;;;4.20;1.73;;;;;;;;;;10450092;28;20035;-76
2022/12/25 08:46:23;;;;;;;4.90;1.52;;;;;;;;;;10465410;28;20529;-74
2022/12/25 08:51:24;;;;;;;4.45;1.83;;;;;;;;;;10467923;28;20495;-74
2022/12/25 08:56:25;;;;;;;4.80;1.48;;;;;;;;;;10471260;28;20033;-74
2022/12/25 09:01:25;;;;;;;7.95;1.55;;;;;;;;;;10454992;28;20028;-79
2022/12/25 09:06:25;;;;;;;4.83;1.40;;;;;;;;;;10466418;28;20028;-78
2022/12/25 09:11:26;;;;;;;4.28;1.35;;;;;;;;;;10445120;28;20480;-79
2022/12/25 09:16:26;;;;;;;3.73;1.70;;;;;;;;;;10454024;28;20045;-77
2022/12/25 09:21:26;;;;;;;6.30;1.63;;;;;;;;;;10441877;28;20037;-76
2022/12/25 09:26:27;;;;;;;3.40;1.60;;;;;;;;;;10455157;28;20025;-78
2022/12/25 09:31:27;;;;;;;1.60;1.30;;;;;;;;;;10467404;28;20021;-78
2022/12/25 09:36:29;;;;;;;3.23;1.23;;;;;;;;;;10441322;28;20111;-77
2022/12/25 09:41:29;;;;;;;1.50;0.88;;;;;;;;;;10474505;28;20486;-73
2022/12/25 09:46:36;;;;;;;5.90;1.92;;;;;;;;;;10484506;28;20024;-74
2022/12/25 09:51:36;;;;;;;3.15;1.52;;;;;;;;;;10455506;28;20085;-75
2022/12/25 09:56:37;;;;;;;8.10;1.08;;;;;;;;;;10464385;28;20074;-73
2022/12/25 10:01:48;;;;;;;1.57;0.83;;;;;;;;;;10456119;28;20020;-75
2022/12/25 10:07:04;;;;;;;6.72;1.25;;;;;;;;;;10447732;28;20047;-76
2022/12/25 10:12:13;;;;;;;4.95;1.52;;;;;;;;;;10480889;28;20036;-77
2022/12/25 10:17:13;;;;;;;2.65;0.93;;;;;;;;;;10453510;28;20029;-74
2022/12/25 10:22:30;;;;;;;2.58;0.80;;;;;;;;;;10481879;28;20474;-73
2022/12/25 10:27:31;;;;;;;11.50;1.97;;;;;;;;;;10466286;28;20445;-78
2022/12/25 10:32:31;;;;;;;10.43;1.15;;;;;;;;;;10484030;28;20039;-74
2022/12/25 10:37:32;;;;;;;2.35;0.70;;;;;;;;;;10478929;28;20584;-73
2022/12/25 10:42:36;;;;;;;3.80;0.77;;;;;;;;;;10471975;28;20287;-77
2022/12/25 10:47:38;;;;;;;1.38;0.65;;;;;;;;;;10468580;28;20036;-76
2022/12/25 10:52:48;;;;;;;6.78;0.90;;;;;;;;;;10477763;28;20029;-76
2022/12/25 10:57:48;;;;;;;2.72;0.90;;;;;;;;;;10477774;28;20032;-72
2022/12/25 11:02:48;;;;;;;13.88;1.38;;;;;;;;;;10487349;28;20039;-73
2022/12/25 11:07:55;;;;;;;8.75;1.20;;;;;;;;;;10477790;28;20028;-78
2022/12/25 11:12:56;;;;;;;3.70;1.10;;;;;;;;;;10459019;28;20049;-74
2022/12/25 11:17:57;;;;;;;6.30;1.08;;;;;;;;;;10444888;28;20029;-74
2022/12/25 11:22:57;;;;;;;2.55;0.90;;;;;;;;;;10444792;28;20159;-76
2022/12/25 11:27:58;;;;;;;1.88;0.73;;;;;;;;;;10461053;28;20051;-72
2022/12/25 11:33:08;;;;;;;2.50;0.88;;;;;;;;;;10463533;28;20047;-77
2022/12/25 11:38:09;;;;;;;5.28;0.93;;;;;;;;;;10466272;28;20627;-80
2022/12/25 11:43:15;;;;;;;7.32;1.20;;;;;;;;;;10454769;28;20274;-74
2022/12/25 11:48:38;;;;;;;3.30;0.73;;;;;;;;;;10444247;28;20435;-75
2022/12/25 11:53:52;;;;;;;4.80;1.00;;;;;;;;;;10444709;28;20024;-77
2022/12/25 11:58:55;;;;;;;3.75;1.20;;;;;;;;;;10449750;28;20633;-77
2022/12/25 12:03:56;;;;;;;5.68;1.10;;;;;;;;;;10460199;28;20044;-72
2022/12/25 12:09:00;;;;;;;2.40;0.95;;;;;;;;;;10457033;28;20036;-79
2022/12/25 12:14:03;;;;;;;3.90;1.08;;;;;;;;;;10461062;28;20045;-72
2022/12/25 12:19:30;;;;;;;3.55;1.40;;;;;;;;;;10456142;28;20398;-73
2022/12/25 12:24:41;;;;;;;4.68;1.92;;;;;;;;;;10434670;28;20037;-76
2022/12/25 12:29:43;;;;;;;5.63;1.63;;;;;;;;;;10464716;28;20036;-75
2022/12/25 12:34:49;;;;;;;6.70;2.15;;;;;;;;;;10441068;28;20046;-77
2022/12/25 12:39:51;;;;;;;6.25;1.48;;;;;;;;;;10471939;28;20107;-78
2022/12/25 12:44:54;;;;;;;2.15;1.20;;;;;;;;;;10447362;28;20085;-77
2022/12/25 12:49:56;;;;;;;5.93;1.95;;;;;;;;;;10448291;28;20085;-77
2022/12/25 12:54:59;;;;;;;13.90;1.73;;;;;;;;;;10445836;28;20036;-76
2022/12/25 13:00:00;;;;;;;5.13;1.58;;;;;;;;;;10455769;28;20131;-75
2022/12/25 13:05:20;;;;;;;3.38;1.70;;;;;;;;;;10446377;28;20028;-73
2022/12/25 13:10:27;;;;;;;5.00;2.30;;;;;;;;;;10463740;28;20369;-72
2022/12/25 13:15:29;;;;;;;7.13;3.17;;;;;;;;;;10465959;28;20128;-72
2022/12/25 13:20:54;;;;;;;4.55;1.40;;;;;;;;;;10469409;28;20025;-76
2022/12/25 13:25:56;;;;;;;3.95;1.30;;;;;;;;;;10434707;28;20039;-72
2022/12/25 13:31:02;;;;;;;2.25;1.30;;;;;;;;;;10447096;28;20029;-74
2022/12/25 13:36:03;;;;;;;3.92;1.33;;;;;;;;;;10463119;28;20021;-73
2022/12/25 13:46:26;;;;;;;4.32;1.42;;;;;;;;;;10468203;28;20127;-78
2022/12/25 13:51:26;;;;;;;4.32;1.48;;;;;;;;;;10440067;28;20032;-76
2022/12/25 13:56:28;;;;;;;3.73;1.40;;;;;;;;;;10452994;28;20029;-78
2022/12/25 14:01:28;;;;;;;6.53;1.90;;;;;;;;;;10462426;28;20032;-78
2022/12/25 14:06:30;;;;;;;10.50;2.17;;;;;;;;;;10449412;28;20505;-76
2022/12/25 14:11:31;;;;;;;2.30;1.10;;;;;;;;;;10456293;28;20035;-76
2022/12/25 14:16:32;;;;;;;3.65;1.45;;;;;;;;;;10458837;28;20040;-77
2022/12/25 14:21:34;;;;;;;4.35;1.42;;;;;;;;;;10465703;28;20097;-76
2022/12/25 14:26:34;;;;;;;3.53;1.30;;;;;;;;;;10449142;28;20021;-78
2022/12/25 14:31:37;;;;;;;2.50;1.63;;;;;;;;;;10439932;28;20028;-78
2022/12/25 14:36:37;;;;;;;7.90;1.95;;;;;;;;;;10466274;28;20029;-77
2022/12/25 14:41:40;;;;;;;8.82;2.28;;;;;;;;;;10456059;28;20576;-80
2022/12/25 14:46:40;;;;;;;4.97;2.40;;;;;;;;;;10454180;28;20047;-76
2022/12/25 14:51:41;;;;;;;5.60;2.50;;;;;;;;;;10455177;28;20039;-78
2022/12/25 14:56:46;;;;;;;5.90;3.17;;;;;;;;;;10464737;28;20055;-80
2022/12/25 15:01:57;;;;;;;8.52;3.72;;;;;;;;;;10445364;28;20021;-79
2022/12/25 15:07:05;;;;;;;8.95;4.55;;;;;;;;;;10443375;28;20517;-78
2022/12/25 15:12:05;;;;;;;8.00;2.97;;;;;;;;;;10445942;28;20036;-80
2022/12/25 15:17:09;;;;;;;12.70;4.47;;;;;;;;;;10470853;28;20036;-76
2022/12/25 15:22:11;;;;;;;9.45;3.35;;;;;;;;;;10460678;28;20063;-73
2022/12/25 15:27:17;;;;;;;7.47;3.05;;;;;;;;;;10455733;28;20088;-75
2022/12/25 15:32:18;;;;;;;5.05;2.70;;;;;;;;;;10453696;28;20111;-76
2022/12/25 15:37:18;;;;;;;6.03;2.80;;;;;;;;;;10452038;28;20037;-76
2022/12/25 15:42:21;;;;;;;9.10;3.65;;;;;;;;;;10468758;28;21079;-73
2022/12/25 15:47:21;;;;;;;12.10;3.55;;;;;;;;;;10461956;28;20111;-78
2022/12/25 15:52:22;;;;;;;8.27;4.20;;;;;;;;;;10446007;28;20033;-79
2022/12/25 15:57:22;;;;;;;6.80;3.17;;;;;;;;;;10443415;28;20462;-75
2022/12/25 16:02:22;;;;;;;10.15;3.63;;;;;;;;;;10445551;28;20023;-76
2022/12/25 16:07:23;;;;;;;11.00;2.70;;;;;;;;;;10454913;28;20029;-75
2022/12/25 16:12:24;;;;;;;7.28;3.00;;;;;;;;;;10430009;28;20739;-75
2022/12/25 16:17:24;;;;;;;6.63;2.90;;;;;;;;;;10440298;28;20017;-73
2022/12/25 16:22:25;;;;;;;7.73;3.20;;;;;;;;;;10457089;28;20025;-74
2022/12/25 16:27:25;;;;;;;9.33;3.30;;;;;;;;;;10456628;28;20025;-77
2022/12/25 16:32:25;;;;;;;9.07;3.75;;;;;;;;;;10442175;28;20458;-73
2022/12/25 16:37:26;;;;;;;8.07;3.47;;;;;;;;;;10470417;28;20536;-78
2022/12/25 16:42:26;;;;;;;7.53;3.60;;;;;;;;;;10455601;28;20033;-76
2022/12/25 16:47:27;;;;;;;6.53;2.73;;;;;;;;;;10455555;28;20028;-76
2022/12/25 16:52:27;;;;;;;6.40;3.20;;;;;;;;;;10473475;28;20028;-73
2022/12/25 16:57:29;;;;;;;13.77;3.47;;;;;;;;;;10448220;28;20104;-78
2022/12/25 17:02:30;;;;;;;10.40;3.30;;;;;;;;;;10443989;28;20025;-74
2022/12/25 17:07:30;;;;;;;15.10;3.17;;;;;;;;;;10458950;28;20040;-75
2022/12/25 17:12:30;;;;;;;4.65;2.72;;;;;;;;;;10458758;28;20060;-74
2022/12/25 17:17:31;;;;;;;14.90;3.60;;;;;;;;;;10450676;28;20501;-75
2022/12/25 17:22:31;;;;;;;10.77;2.60;;;;;;;;;;10462364;28;20495;-76
2022/12/25 17:27:31;;;;;;;6.28;3.13;;;;;;;;;;10458053;28;20029;-77
2022/12/25 17:32:33;;;;;;;6.60;2.92;;;;;;;;;;10467144;28;20024;-74
2022/12/25 17:37:34;;;;;;;7.18;3.22;;;;;;;;;;10466491;28;20039;-77
2022/12/25 17:42:35;;;;;;;7.68;3.15;;;;;;;;;;10454853;28;20056;-76
2022/12/25 17:47:36;;;;;;;11.40;2.92;;;;;;;;;;10470313;28;20175;-79
2022/12/25 17:52:36;;;;;;;5.17;2.30;;;;;;;;;;10455866;28;20128;-75
2022/12/25 17:57:36;;;;;;;4.72;2.30;;;;;;;;;;10450602;28;20267;-76
2022/12/25 18:02:38;;;;;;;5.75;2.85;;;;;;;;;;10451491;28;20098;-78
2022/12/25 18:07:39;;;;;;;6.78;3.17;;;;;;;;;;10466502;28;20103;-73
2022/12/25 18:12:41;;;;;;;4.47;2.45;;;;;;;;;;10459983;28;20515;-75
2022/12/25 18:17:41;;;;;;;12.00;3.28;;;;;;;;;;10446665;28;20021;-79
2022/12/25 18:22:42;;;;;;;6.55;2.92;;;;;;;;;;10448907;28;20025;-75
2022/12/25 18:27:42;;;;;;;10.00;4.03;;;;;;;;;;10454693;28;20021;-75
2022/12/25 18:32:42;;;;;;;7.57;3.28;;;;;;;;;;10451598;28;20020;-79
2022/12/25 18:37:43;;;;;;;6.65;2.90;;;;;;;;;;10453954;28;20021;-79
2022/12/25 18:42:45;;;;;;;6.50;3.97;;;;;;;;;;10457680;28;20125;-81
2022/12/25 18:47:45;;;;;;;15.27;3.38;;;;;;;;;;10468801;28;20063;-78
2022/12/25 18:52:47;;;;;;;8.95;3.75;;;;;;;;;;10465061;28;20039;-78
2022/12/25 18:57:48;;;;;;;7.65;4.28;;;;;;;;;;10456068;28;20501;-75
2022/12/25 19:02:49;;;;;;;9.82;4.25;;;;;;;;;;10450079;28;20029;-74
2022/12/25 19:07:49;;;;;;;18.40;5.60;;;;;;;;;;10446766;28;20359;-73
2022/12/25 19:12:49;;;;;;;14.30;5.97;;;;;;;;;;10448143;28;20148;-77
2022/12/25 19:17:49;;;;;;;19.45;6.70;;;;;;;;;;10435885;28;20031;-76
2022/12/25 19:22:51;;;;;;;18.33;6.30;;;;;;;;;;10454652;28;20119;-76
2022/12/25 19:27:51;;;;;;;26.02;8.75;;;;;;;;;;10431575;28;20071;-77
2022/12/25 19:32:52;;;;;;;19.40;9.27;;;;;;;;;;10451114;28;20050;-74
2022/12/25 19:37:52;;;;;;;35.17;9.80;;;;;;;;;;10471076;28;20027;-72
2022/12/25 19:42:54;;;;;;;18.00;9.02;;;;;;;;;;10471254;28;20732;-73
2022/12/25 19:47:54;;;;;;;24.98;10.07;;;;;;;;;;10474735;28;20024;-75
2022/12/25 19:52:55;;;;;;;19.63;9.60;;;;;;;;;;10435136;28;20033;-74
2022/12/25 19:57:57;;;;;;;26.45;11.52;;;;;;;;;;10451571;28;20471;-74
2022/12/25 20:03:00;;;;;;;24.40;9.68;;;;;;;;;;10445147;28;20033;-77
2022/12/25 20:08:00;;;;;;;31.38;11.45;;;;;;;;;;10454487;28;20037;-78
2022/12/25 20:13:01;;;;;;;30.35;10.98;;;;;;;;;;10422430;28;20044;-77
2022/12/25 20:18:02;;;;;;;33.80;11.82;;;;;;;;;;10461872;28;20444;-78
2022/12/25 20:23:02;;;;;;;22.77;10.20;;;;;;;;;;10458222;28;20033;-77
2022/12/25 20:28:03;;;;;;;33.70;11.95;;;;;;;;;;10459437;28;20020;-76
2022/12/25 20:33:03;;;;;;;31.60;11.43;;;;;;;;;;10452978;28;20582;-74
2022/12/25 20:38:04;;;;;;;35.08;12.30;;;;;;;;;;10450480;28;20278;-73
2022/12/25 20:43:06;;;;;;;27.15;12.57;;;;;;;;;;10462370;28;20037;-76
2022/12/25 20:48:06;;;;;;;29.33;14.18;;;;;;;;;;10455827;28;20028;-73
2022/12/25 20:53:07;;;;;;;31.70;13.63;;;;;;;;;;10466566;28;20024;-75
2022/12/25 20:58:07;;;;;;;30.20;12.55;;;;;;;;;;10466573;28;20487;-74
2022/12/25 21:03:07;;;;;;;28.48;13.48;;;;;;;;;;10456720;28;20522;-73
2022/12/25 21:08:08;;;;;;;30.00;11.68;;;;;;;;;;10451572;28;20028;-76
2022/12/25 21:13:08;;;;;;;20.03;7.57;;;;;;;;;;10434422;28;20052;-73
2022/12/25 21:18:08;;;;;;;10.43;5.07;;;;;;;;;;10444857;28;20521;-74
2022/12/25 21:23:09;;;;;;;10.98;5.20;;;;;;;;;;10451172;28;20073;-74
2022/12/25 21:28:10;;;;;;;7.97;4.57;;;;;;;;;;10484896;28;20028;-75
2022/12/25 21:38:29;;;;;;;9.70;4.47;;;;;;;;;;10490429;28;20029;-73
2022/12/25 21:43:29;;;;;;;7.30;4.00;;;;;;;;;;10489950;28;20044;-73
2022/12/25 21:48:31;;;;;;;12.60;4.57;;;;;;;;;;10516813;28;20021;-74
2022/12/25 21:53:31;;;;;;;8.25;4.22;;;;;;;;;;10499469;28;20811;-73
2022/12/25 21:58:31;;;;;;;11.68;3.85;;;;;;;;;;10469039;28;20020;-75
2022/12/25 22:03:32;;;;;;;8.23;3.58;;;;;;;;;;10477906;28;20097;-72
2022/12/25 22:08:32;;;;;;;14.30;4.65;;;;;;;;;;10459209;28;20411;-75
2022/12/25 22:24:10;;;;;;;11.40;4.88;;;;;;;;;;10486637;28;20024;-78
2022/12/25 22:29:10;;;;;;;15.20;5.73;;;;;;;;;;10484931;28;20483;-72
2022/12/25 22:34:11;;;;;;;12.80;5.33;;;;;;;;;;10484442;28;20521;-75
2022/12/25 22:39:11;;;;;;;15.65;5.97;;;;;;;;;;10477462;28;20024;-74
2022/12/25 22:44:11;;;;;;;15.43;6.63;;;;;;;;;;10467015;28;20490;-74
2022/12/25 22:49:12;;;;;;;11.37;5.90;;;;;;;;;;10475197;28;20021;-81
2022/12/25 22:54:12;;;;;;;12.90;6.43;;;;;;;;;;10465040;28;20434;-79
2022/12/25 22:59:14;;;;;;;15.32;6.82;;;;;;;;;;10465226;28;20016;-81
2022/12/25 23:04:14;;;;;;;17.23;7.35;;;;;;;;;;10482120;28;20067;-74
2022/12/25 23:09:15;;;;;;;21.17;9.07;;;;;;;;;;10481929;28;20146;-80
2022/12/25 23:30:14;;;;;;;14.50;8.15;;;;;;;;;;10483140;28;20052;-78
2022/12/25 23:35:14;;;;;;;25.50;10.70;;;;;;;;;;10464369;28;20024;-76
2022/12/25 23:40:15;;;;;;;25.98;11.35;;;;;;;;;;10477627;28;20036;-76
2022/12/25 23:45:15;;;;;;;15.10;8.13;;;;;;;;;;10465795;28;20024;-80
2022/12/25 23:50:15;;;;;;;25.17;9.25;;;;;;;;;;10506312;28;20362;-73
2022/12/25 23:55:16;;;;;;;28.58;10.27;;;;;;;;;;10492616;28;20123;-76
